Detall de PIREP

Printer-friendly versionPDF version

[2015/03/30 08:58:00]
Flight IATA:CT1004
Pilot Number:012
Company ICAO:CAT
Aircraft Type:B738/F
PAX:160
Departing Airport: LIEA
Destination Airport: LWSK
Alternate Airport:LWOH
Online: VATSIM
Route:KOLUS UM603 POKAV UM620 SOR UM603 BRD UP92 GOSTI
Flight Level:F350
No Slew and time accel
No pause
Crash detect
Detect pilot in Cockpit between each 30 and 45 minutes
08:58 Zero fuel Weight: 122959 Lbs, Fuel Weight: 17718 Lbs
08:58 VATSIM:LIEA 300820Z 29015G32KT 240V310 CAVOK 16/10 Q1014
08:58 VATSIM:LWSK 300830Z 00000KT 9999 FEW100 SCT200 08/04 Q1009 NOSIG
08:58 EASTER CHARTER
08:58 Parking Brakes off
09:02 Take-off
09:02 Take off Weight: 140120 Lbs
09:02 Wind: 276º @ 025 Knots Heading: 208º
09:02 POS N40º 37´ 40´´ E008º 17´ 18´´
09:03 Gear Up: 163 Knots
09:03 Flaps:3 at 163 Knots
09:03 Flaps:2 at 173 Knots
09:03 Flaps:1 at 178 Knots
09:06 Flaps:0 at 213 Knots
09:18 Wind:334º@072 Knots Heading: 077º Ground Speed: 495 Knots Altitude 30390 ft
09:21 TOC
09:21 Fuel Weight: 13447 Lb
09:33 Wind:336º@076 Knots Heading: 085º Ground Speed: 492 Knots Altitude 34842 ft
09:48 Wind:338º@076 Knots Heading: 079º Ground Speed: 480 Knots Altitude 34921 ft
10:03 Wind:316º@082 Knots Heading: 083º Ground Speed: 518 Knots Altitude 34904 ft
10:14 TOD
10:14 Fuel Weight: 8508 Lb
10:18 Wind:315º@046 Knots Heading: 061º Ground Speed: 445 Knots Altitude 26519 ft
10:27 Flaps:1 at 218 Knots
10:27 Flaps:2 at 216 Knots
10:27 Flaps:3 at 212 Knots
10:33 Wind:207º@000 Knots Heading: 125º Ground Speed: 192 Knots Altitude 4363 ft
10:33 Flaps:4 at 175 Knots
10:34 Gear Down: 179 Knots
10:35 Flaps:5 at 170 Knots
10:35 Flaps:6 at 154 Knots
10:35 Flaps:7 at 143 Knots
10:38 TouchDown:Rate -185 ft/min Speed: 135 Knots
10:38 VATSIM:LWSK 301030Z 00000KT 9999 SCT100 BKN200 12/03 Q1008 NOSIG
10:38 Land
10:38 Wind:112º@000 Knots
10:38 Heading: 345º
10:38 Flight Duration: 01:36
10:38 Landing Weight: 130323 Lbs
10:38 POS N41º 57´ 50´´ E021º 37´ 14´´
10:40 Parking brakes on
10:40 Block to Block Duration: 01:42
10:40 Final Fuel: 7180 Lbls
10:40 Spent Fuel: 10537 Lbls
10:40 Flight Length: 669 NM
10:40 TOD Land Length: 121 NM

Exportar CSV

Powered by Drupal - Modified by Danger4k